Fulton County Airport Brown Field
KFTY : now visible

Airfield :











YOU CAN JOIN US ON...

 
LOGIN :

Register | Disclaimer

   EN    FR    IT 

 









Legend :    VFR   Marginal VFR   IFR   Intensive IFR   Very Intensive IFR
Visi :
Ceiling :
>= 8 km
>= 3000ft
5 to 8 km
1000 to 3000 ft
1500m to 5 km
500 to 1000 ft
800 to 1500m
200 to 500 ft
< 800m
< 200 ft
Symbols :   Thunderstorms  Fog  Heavy snow  Heavy precipitations  Wind > 20 kt






- Airport Elevation : 841 ft


KFTY - Fulton County Brown Field

CURRENT METAR :
  • 212353Z 14003KT 10SM CLR 16/M03 A3016 RMK AO2 SLP214 T01561028 10194 20156 56008

EXPIRED METARs :
  • 212253Z 17004KT 10SM CLR 18/M03 A3016 RMK AO2 SLP215 T01781033
  • 212153Z 20005KT 10SM CLR 19/M03 A3018 RMK AO2 SLP218 T01891033
  • 212053Z 20005KT 10SM CLR 19/M03 A3018 RMK AO2 SLP222 T01891033 56032
  • 211953Z 21005KT 10SM CLR 18/M03 A3021 RMK AO2 SLP229 T01831033

TAF KFTY
Valid from the 22 at 00:00 until the 23 at 00:00 UTC


212329Z 2200/2224 17004KT P6SM FEW250
FM221300 18006KT P6SM SCT250
FM221600 20010G20KT P6SM SCT250
FM222300 20011G21KT P6SM SCT060 BKN120
KZTL FIR / North America



MET'MAP, your aeronautical weather chart ! - Copyright ORBIFLY December 2007 - Disclaimer

ORBIFLY MET'MAP TEAM :

Programming & Development : Alexandra Zaïnal
Original concept : Baudouin d'Aumeries
Technical & hardware support : Manuel Goepfert
Assistance : Marc-Olivier Méhu




SOURCES & CREDITS :

   NOAA       Earth
Advisory